Welcome to our Virtual Airline
Sign-in:

Flight MFC30161

  • Submitted By: John Dean
  • Departure Airport: Lloyd R. Roundtree Seaplane Facility (63A)
  • Arrival Airport: Kake SPB (KAE)
  • Aircraft: CESSNA 185 (N016MM)
  • Flight Time: 00.34.33
  • Date Submitted: 2019/07/27
  • Route: STOP AT PORTAGE BAY DOCK (TF11)
  • Status: Accepted
Flight Details
Gross Revenue:
(3 load / $ 50.00 per unit
$ 150.00
Fuel Cost:
(14.515 fuel used @ 5.1 / unit)
$ 74.03

Additional Log Information:

View Log

FS[12:55] ----- Flight Opened -----
FS[12:55] Cigar Box - 1.1.4.0
FS[12:55] FS: FSX
FS[12:55] FSUIPC: v4.973
FS[12:55] Flight Number: MFC30161
FS[12:55] FS Aircraft: C185F SKYWAGON AMPHIBIAN BWEP N185MM
FS[12:55] FS Model: C185
FS[12:55] FS Type: Cessna
FS[12:55] Departure: 63A
FS[12:55] Arrival: KAE
FS[12:55] Flight Level: 2500
FS[12:55] Flight Type: H
FS[12:55] Passengers: 3
FS[12:55] FOB: 384 lbs
FS[12:55] Gate: n/a
FS[12:55] Crash Detection: Disabled
FS[12:55] Crash Detection Aircraft: Disabled
FS[12:55] Engines: 1 Piston
FS[12:55] NOTE: Boarding has started
FS[12:55] FS: Paused
FS[12:55] Parking Brake: Engaged
FS[12:55] Landing Gear: Retracted
FS[12:55] Engine 1: Started
FS[12:55] Light Data: Navigation ON
FS[12:55] Light Data: Beacon ON
FS[12:55] Light Data: Landing lights ON
FS[12:55] Light Data: Taxi lights ON
FS[12:55] Light Data: Strobe lights ON
FS[12:55] Light Data: Instrument lights ON
FS[12:55] Light Data: Recognition lights ON
FS[12:55] Light Data: Wing lights ON
FS[12:55] Light Data: Logo lights ON
FS[12:55] Light Data: Cabin lights ON
FS[12:55] Main Door Closed
FS[12:55] COM1: 128.30
FS[12:55] COM2: 127.80
FS[12:55] Transponder: 1200
FS[12:55] NAV1: 113.70
FS[12:55] NAV2: 110.60
FS[12:55] ADF1: 284.0
FS[12:55] ADF2: 240.0
FS[12:55] Navigation Mode: GPS
FS[12:55] Navigation Mode: GPS
FS[12:55] FS: Unpaused
FS[12:55] NOTE: Pushing back
FS[12:55] COM1: 122.50
FS[12:55] Parking Brake: Released
FS[12:55] NOTE: Taxi started
FS[12:56] Flaps: Position 1
FS[12:57] NOTE: ----- TAKE OFF -----
FS[12:57] GS: 60 knots
FS[12:57] TAS: 61 knots
FS[12:57] IAS: 61 knots
FS[12:57] VS: 25 fpm
FS[12:57] FOB: 383 lbs
FS[12:57] Heading: 284°
FS[12:57] Pitch: 4°
FS[12:57] Bank: 0°
FS[12:57] Aircraft Weight: 2488.42 lbs
FS[12:57] Nearest Airport: 63A
FS[12:57] Distance: 0.11 miles
FS[12:57] Runway: ???
FS[12:57] Ground Surface: Water
FS[12:57] Ground Condition: Normal
FS[12:57] NOTE: Weather Report
FS[12:57] Wind Heading: 337°
FS[12:57] Wind Speed: 0 knots
FS[12:57] OAT: 14° C
FS[12:57] TAT: 15° C
FS[12:57] Precipitation: None
FS[12:57] Dew Point: 4° C
FS[12:57] Visibility: 62 miles
FS[12:57] METAR: No METAR available for 63A.
FS[12:57] NOTE: Climb started
FS[12:57] Flaps: Position 0
FS[12:57] GS: 75 knots
FS[12:57] TAS: 78 knots
FS[12:57] IAS: 78 knots
FS[12:57] VS: 845 fpm
FS[12:57] View Mode: Spot Plane
FS[12:57] Autopilot: Engaged
FS[12:57] AGL: 371 ft
FS[12:57] AMSL: 403 ft
FS[12:58] COM1: 122.90
FS[13:03] Flaps: Position 1
FS[13:03] GS: 87 knots
FS[13:03] TAS: 87 knots
FS[13:03] IAS: 87 knots
FS[13:03] VS: 66 fpm
FS[13:05] Autopilot: Disengaged
FS[13:05] AGL: 177 ft
FS[13:05] AMSL: 177 ft
FS[13:05] Flaps: Position 2
FS[13:05] GS: 68 knots
FS[13:05] TAS: 68 knots
FS[13:05] IAS: 68 knots
FS[13:05] VS: -217 fpm
FS[13:06] NOTE: ----- LANDED -----
FS[13:06] Landing Rate: -125.34 fpm
FS[13:06] GS: 54 knots
FS[13:06] TAS: 55 knots
FS[13:06] IAS: 55 knots
FS[13:06] VS: -125 fpm
FS[13:06] FOB: 371 lbs
FS[13:06] Heading: 331°
FS[13:06] Pitch: 3°
FS[13:06] Bank: 0°
FS[13:06] Aircraft Weight: 2476.66 lbs
FS[13:06] Nearest Airport: TF11
FS[13:06] Distance: 0.36 miles
FS[13:06] Runway: ???
FS[13:06] Ground Surface: Water
FS[13:06] Ground Condition: Normal
FS[13:06] NOTE: Weather Report
FS[13:06] Wind Heading: 337°
FS[13:06] Wind Speed: 0 knots
FS[13:06] OAT: 14° C
FS[13:06] TAT: 15° C
FS[13:06] Precipitation: None
FS[13:06] Dew Point: 4° C
FS[13:06] Visibility: 62 miles
FS[13:06] METAR: KAEG 262347Z 21020G35KT 10SM TSRA BKN090CU BKN140TCU 26/16 A3018 RMK TS OVHD FQT LTG CG TCU ALQDSKAEJ 262355Z AUTO 00000KT 10SM OVC090 21/07 A3044 RMK AO2 T02140069 10277 20190KAEL 262355Z AUTO 23005KT 10SM SCT050 A2997 RMK AO2KAEX 262353Z 08006KT 10SM CLR 31/18 A3008 RMK AO2 SLP189 T03060178 10328 20300 55003
FS[13:06] View Mode: Spot Plane
FS[13:06] Flaps: Position 0
FS[13:06] NOTE: Taxi started
FS[13:07] NOTE: Arrived
FS[13:07] Parking Brake: Engaged
FS[13:07] Main Door Open
FS[13:08] Main Door Closed
FS[13:09] Parking Brake: Released
FS[13:10] Flaps: Position 1
FS[13:10] Flaps: Position 0
FS[13:10] GS: 77 knots
FS[13:10] TAS: 78 knots
FS[13:10] IAS: 78 knots
FS[13:10] VS: 1007 fpm
FS[13:10] View Mode: Spot Plane
FS[13:11] Autopilot: Engaged
FS[13:11] AGL: 360 ft
FS[13:11] AMSL: 364 ft
FS[13:20] Flaps: Position 1
FS[13:20] GS: 95 knots
FS[13:20] TAS: 97 knots
FS[13:20] IAS: 96 knots
FS[13:20] VS: -2 fpm
FS[13:21] Flaps: Position 2
FS[13:21] GS: 87 knots
FS[13:21] TAS: 89 knots
FS[13:21] IAS: 88 knots
FS[13:21] VS: -439 fpm
FS[13:21] Autopilot: Disengaged
FS[13:21] AGL: 370 ft
FS[13:21] AMSL: 370 ft
FS[13:22] NOTE: ----- LANDED -----
FS[13:22] Landing Rate: -86.89 fpm
FS[13:22] GS: 56 knots
FS[13:22] TAS: 56 knots
FS[13:22] IAS: 57 knots
FS[13:22] VS: -88 fpm
FS[13:22] FOB: 353 lbs
FS[13:22] Heading: 283°
FS[13:22] Pitch: 3°
FS[13:22] Bank: 0°
FS[13:22] Aircraft Weight: 2458.05 lbs
FS[13:22] Nearest Airport: PAFE
FS[13:22] Distance: 0.36 miles
FS[13:22] Runway: 28 - PAFE
FS[13:22] Ground Surface: Water
FS[13:22] Ground Condition: Normal
FS[13:22] NOTE: Weather Report
FS[13:22] Wind Heading: 337°
FS[13:22] Wind Speed: 0 knots
FS[13:22] OAT: 14° C
FS[13:22] TAT: 15° C
FS[13:22] Precipitation: None
FS[13:22] Dew Point: 4° C
FS[13:22] Visibility: 62 miles
FS[13:22] METAR: KAEG 262347Z 21020G35KT 10SM TSRA BKN090CU BKN140TCU 26/16 A3018 RMK TS OVHD FQT LTG CG TCU ALQDSKAEJ 262355Z AUTO 00000KT 10SM OVC090 21/07 A3044 RMK AO2 T02140069 10277 20190KAEL 262355Z AUTO 23005KT 10SM SCT050 A2997 RMK AO2KAEX 262353Z 08006KT 10SM CLR 31/18 A3008 RMK AO2 SLP189 T03060178 10328 20300 55003
FS[13:22] View Mode: Spot Plane
FS[13:22] Flaps: Position 0
FS[13:30] Parking Brake: Engaged
FS[13:30] Engine 1: Stopped
FS[13:30] Main Door Open
FS[13:30] Light Data: Navigation OFF
FS[13:30] Light Data: Beacon OFF
FS[13:30] Light Data: Landing lights OFF
FS[13:30] Light Data: Taxi lights OFF
FS[13:30] Light Data: Strobe lights OFF
FS[13:30] Light Data: Instrument lights OFF
FS[13:30] Light Data: Recognition lights OFF
FS[13:30] Light Data: Wing lights OFF
FS[13:30] Light Data: Logo lights OFF
FS[13:30] Light Data: Cabin lights OFF
FS[13:30] FS: Paused
FS[13:30] Gate: n/a
FS[13:30] NOTE: Flight Completed
FS[13:30] FS Aircraft: C185F SKYWAGON AMPHIBIAN BWEP N185MM
FS[13:30] FS Model: C185
FS[13:30] FS Type: Cessna
FS[13:30] FOB: 352 lbs
FS[13:30] Fuel Used: 32 lbs
FS[13:30] Flight Time: 00:34:33
FS[13:30] Flight Time (Dawn): 00:00:00
FS[13:30] Flight Time (Day): 00:34:33
FS[13:30] Flight Time (Dusk): 00:00:00
FS[13:30] Flight Time (Night): 00:00:00
FS[13:30] Total Landings: 2
FS[13:30] MaxSim Rate: 1x
FS[13:30] Cigar Box - 1.1.4.0
FS[13:30] ----- Flight Closed -----

Route Map